Terminal Aerodrome Forecast
Issued by NWS Newport/Morehead City, NC

Home | Current Version | Previous Version | Text Only | Print | Product List | Glossary On
Versions: 1 2 3 4 5 6 7 8 9 10 11 12 13 14 15 16 17
000
FTUS42 KMHX 281125
TAFEWN
TAF
KEWN 281125Z 2812/2912 32009KT P6SM -DZ SCT015 BKN035
     FM281330 31011G20KT P6SM SCT040
     FM290100 30007KT P6SM SKC=

USA.gov is the U.S. government's official web portal to all federal, state and local government web resources and services.